Airfield :
LOGIN :

Register | Disclaimer

   EN    FR    IT 

 










Legend :    VFR   Marginal VFR   IFR   Intensive IFR   Very Intensive IFR
Visi :
Ceiling :
>= 8 km
>= 3000ft
5 to 8 km
1000 to 3000 ft
1500m to 5 km
500 to 1000 ft
800 to 1500m
200 to 500 ft
< 800m
< 200 ft
Symbols :   Thunderstorms  Fog  Heavy snow  Heavy precipitations  Wind > 20 kt
SIGMETs :     Misc.  Thunderstorms  Icing  Turbulence  Mountain Waves  Volcanic Ashes







- Airport Elevation : 12 ft
- IATA code : BCN


LEBL - Barcelone

CURRENT METAR :
  • 190430Z 07017KT 9999 FEW040 16/09 Q1019 NOSIG

EXPIRED METARs :
  • 190400Z 06017KT 9999 FEW040 16/09 Q1018 NOSIG
  • 190330Z 06018KT 9999 FEW040 16/09 Q1018 NOSIG
  • 190300Z 06019KT 9999 FEW040 15/09 Q1018 NOSIG
  • 190230Z 06021KT 9999 FEW040 16/09 Q1019 NOSIG
  • 190200Z 06020KT 9999 FEW040 16/09 Q1019 NOSIG

TAF TAF LEBL
Valid from the 19 at 00:00 until the 20 at 00:00 UTC


182300Z 1900/1924 08020KT 9999 FEW015 TX20/1912Z TN14/1906Z
TEMPO 1900/1918 07020G35KT
PROB40
TEMPO 1910/1916 07027G40KT
No reported NOTAMs for that airfield.



MET'MAP, your aeronautical weather chart ! - Copyright ORBIFLY December 2007 - Disclaimer

ORBIFLY MET'MAP TEAM :

Programming & Development : Alexandra Zaïnal
Concept & Development : Baudouin d'Aumeries
Co-Development & Prog : Marc-Olivier Méhu
Technical & hardware support : Manuel Goepfert

Contact : metmap@orbifly.com




SOURCES & CREDITS :

   NOAA